Time;durP1;ratioP1;P1;durP2;ratioP2;P2;SDS_P1;SDS_P2;PMS_P1;PMS_P2;Temp;Humidity;BMP_temperature;BMP_pressure;BME280_temperature;BME280_humidity;BME280_pressure;Samples;Min_cycle;Max_cycle;Signal;HPM_P1;HPM_P2
2023/03/12 00:00:43;;;;;;;2.05;1.17;;;3.00;98.00;;;;;;4987824;28;20046;-74
2023/03/12 00:03:09;;;;;;;5.30;4.55;;;2.90;97.30;;;;;;4989390;28;20153;-73
2023/03/12 00:05:39;;;;;;;2.78;2.58;;;2.90;96.30;;;;;;4992599;28;20114;-75
2023/03/12 00:08:06;;;;;;;2.65;1.50;;;2.90;96.70;;;;;;4987396;28;20863;-75
2023/03/12 00:10:32;;;;;;;1.55;1.20;;;2.90;97.00;;;;;;4989833;28;20045;-78
2023/03/12 00:12:57;;;;;;;2.85;1.20;;;2.90;97.60;;;;;;4992011;28;20421;-79
2023/03/12 00:15:23;;;;;;;1.80;1.10;;;2.90;97.60;;;;;;4997536;28;20118;-79
2023/03/12 00:17:49;;;;;;;1.27;1.00;;;2.90;96.40;;;;;;4995209;28;20037;-74
2023/03/12 00:20:15;;;;;;;1.95;1.13;;;2.90;96.50;;;;;;4990772;28;20525;-75
2023/03/12 00:22:40;;;;;;;3.92;1.10;;;2.90;95.40;;;;;;4989565;28;20057;-76
2023/03/12 00:25:10;;;;;;;1.55;1.10;;;2.70;95.60;;;;;;4988225;28;20473;-75
2023/03/12 00:27:36;;;;;;;1.73;1.13;;;2.70;95.90;;;;;;4996803;28;20087;-75
2023/03/12 00:30:03;;;;;;;1.58;1.05;;;2.80;96.10;;;;;;4999132;28;20115;-75
2023/03/12 00:32:31;;;;;;;2.00;1.10;;;2.70;95.80;;;;;;4999978;28;20045;-74
2023/03/12 00:34:57;;;;;;;2.58;1.33;;;2.90;96.00;;;;;;5001596;28;20395;-74
2023/03/12 00:37:23;;;;;;;1.05;0.93;;;2.80;95.10;;;;;;4996225;28;20049;-74
2023/03/12 00:39:49;;;;;;;1.75;0.90;;;2.80;95.30;;;;;;4999328;28;20455;-75
2023/03/12 00:42:15;;;;;;;1.17;0.98;;;2.80;95.30;;;;;;4993911;28;20057;-73
2023/03/12 00:44:41;;;;;;;1.48;1.25;;;2.70;95.40;;;;;;4994924;28;20036;-73
2023/03/12 00:47:07;;;;;;;2.50;1.00;;;2.60;95.10;;;;;;4990133;28;20045;-73
2023/03/12 00:49:32;;;;;;;1.42;1.05;;;2.60;95.40;;;;;;4991576;28;20132;-74
2023/03/12 00:51:58;;;;;;;1.63;1.10;;;2.60;95.20;;;;;;4995928;28;20133;-75
2023/03/12 00:54:23;;;;;;;2.83;1.20;;;2.50;95.80;;;;;;4992693;28;20478;-76
2023/03/12 00:56:49;;;;;;;1.08;0.98;;;2.50;95.40;;;;;;4991363;28;20045;-77
2023/03/12 00:59:15;;;;;;;1.52;1.00;;;2.60;96.00;;;;;;4996148;28;20379;-76
2023/03/12 01:01:41;;;;;;;2.38;1.00;;;2.50;95.50;;;;;;4995575;28;20049;-77
2023/03/12 01:04:08;;;;;;;2.42;1.65;;;2.60;95.60;;;;;;4993886;28;20037;-76
2023/03/12 01:06:34;;;;;;;1.50;1.00;;;2.50;95.10;;;;;;4989026;28;20414;-75
2023/03/12 01:09:04;;;;;;;2.88;1.20;;;2.50;95.30;;;;;;4998035;28;20037;-74
2023/03/12 01:11:31;;;;;;;2.45;1.13;;;2.50;95.50;;;;;;4995099;28;20050;-74
2023/03/12 01:13:58;;;;;;;1.30;1.05;;;2.50;94.80;;;;;;4995653;28;20045;-74
2023/03/12 01:16:27;;;;;;;1.95;1.17;;;2.60;95.30;;;;;;4983129;28;20088;-72
2023/03/12 01:18:54;;;;;;;1.08;0.90;;;2.60;95.40;;;;;;4981445;28;20038;-73
2023/03/12 01:21:19;;;;;;;3.28;1.05;;;2.70;94.90;;;;;;4993617;28;20084;-72
2023/03/12 01:23:45;;;;;;;3.13;1.40;;;2.60;94.90;;;;;;4999741;28;20394;-72
2023/03/12 01:26:11;;;;;;;1.75;1.48;;;2.60;95.00;;;;;;4990958;28;20038;-73
2023/03/12 01:28:37;;;;;;;0.90;0.73;;;2.60;94.20;;;;;;4996203;28;20646;-73
2023/03/12 01:31:12;;;;;;;0.88;0.88;;;2.70;94.00;;;;;;4994886;28;20029;-73
2023/03/12 01:33:38;;;;;;;2.53;1.25;;;2.70;94.40;;;;;;5011664;28;20038;-73
2023/03/12 01:36:04;;;;;;;2.28;1.50;;;2.70;93.70;;;;;;4995474;28;20038;-73
2023/03/12 01:38:30;;;;;;;0.98;0.75;;;2.70;94.30;;;;;;4993218;28;20041;-73
2023/03/12 01:40:55;;;;;;;2.10;1.20;;;2.70;93.70;;;;;;4997118;28;20049;-74
2023/03/12 01:43:30;;;;;;;2.53;1.20;;;2.70;93.90;;;;;;4995873;28;20045;-73
2023/03/12 01:46:04;;;;;;;2.45;1.73;;;2.80;93.60;;;;;;4989359;28;20071;-74
2023/03/12 01:48:41;;;;;;;2.28;1.10;;;2.70;93.50;;;;;;4993528;28;20166;-75
2023/03/12 01:51:11;;;;;;;1.65;1.27;;;2.60;93.50;;;;;;4993344;28;20057;-74
2023/03/12 01:53:38;;;;;;;3.22;1.25;;;2.70;93.50;;;;;;4996235;28;20045;-76
2023/03/12 01:56:05;;;;;;;1.10;1.00;;;2.80;93.00;;;;;;4997963;28;21500;-75
2023/03/12 01:58:34;;;;;;;1.98;1.00;;;2.80;93.00;;;;;;4995823;28;20038;-75
2023/03/12 02:01:00;;;;;;;1.52;1.30;;;2.70;93.10;;;;;;4994142;28;20125;-65
2023/03/12 02:03:27;;;;;;;4.03;2.65;;;2.80;92.80;;;;;;4994657;28;20068;-64
2023/03/12 02:06:07;;;;;;;2.72;2.10;;;2.80;92.80;;;;;;4992227;28;20030;-64
2023/03/12 02:08:37;;;;;;;1.88;1.20;;;2.80;93.00;;;;;;4992670;28;20042;-64
2023/03/12 02:11:03;;;;;;;1.63;1.00;;;2.80;93.00;;;;;;4992478;28;20724;-65
2023/03/12 02:13:29;;;;;;;1.88;1.00;;;2.70;93.50;;;;;;4995558;28;20384;-64
2023/03/12 02:15:54;;;;;;;1.48;1.10;;;2.70;93.70;;;;;;4996730;28;20040;-64
2023/03/12 02:18:20;;;;;;;1.35;1.10;;;2.60;93.90;;;;;;4987350;28;20034;-64
2023/03/12 02:20:52;;;;;;;1.50;1.20;;;2.60;94.70;;;;;;4994203;28;20057;-65
2023/03/12 02:23:24;;;;;;;;;;;2.50;95.30;;;;;;4997914;28;20088;-64
2023/03/12 02:25:52;;;;;;;1.95;1.25;;;2.40;95.50;;;;;;4986353;28;19961;-65
2023/03/12 02:28:20;;;;;;;1.20;1.10;;;2.30;96.50;;;;;;4993715;28;20041;-65
2023/03/12 02:30:48;;;;;;;2.05;1.10;;;2.30;96.90;;;;;;4996063;28;20088;-65
2023/03/12 02:33:15;;;;;;;3.22;1.50;;;2.40;96.40;;;;;;4998547;28;20045;-65
2023/03/12 02:35:41;;;;;;;3.28;1.40;;;2.50;96.80;;;;;;4988955;28;20600;-65
2023/03/12 02:38:28;;;;;;;3.25;2.13;;;2.50;97.00;;;;;;4997558;28;20160;-65
2023/03/12 02:40:57;;;;;;;3.60;2.22;;;2.50;97.40;;;;;;4992743;28;20072;-65
2023/03/12 02:43:23;;;;;;;2.75;2.05;;;2.50;97.40;;;;;;4996377;28;20042;-65
2023/03/12 02:45:49;;;;;;;2.63;1.83;;;2.50;97.60;;;;;;4993924;28;20141;-65
2023/03/12 02:48:15;;;;;;;3.47;2.15;;;2.60;97.60;;;;;;4995545;28;20514;-63
2023/03/12 02:50:41;;;;;;;1.75;1.60;;;2.60;97.60;;;;;;4992900;28;20093;-64
2023/03/12 02:53:07;;;;;;;6.43;3.90;;;2.70;97.50;;;;;;4995294;28;20030;-64
2023/03/12 02:55:32;;;;;;;3.28;2.30;;;2.70;97.80;;;;;;4994538;28;20062;-63
2023/03/12 02:57:58;;;;;;;3.05;2.00;;;2.80;98.00;;;;;;4990651;28;20759;-63
2023/03/12 03:00:24;;;;;;;4.82;2.88;;;2.70;98.20;;;;;;4990082;28;20149;-63
2023/03/12 03:02:50;;;;;;;4.13;2.67;;;2.60;98.10;;;;;;4986068;28;20057;-62
2023/03/12 03:05:16;;;;;;;3.55;2.55;;;2.70;98.70;;;;;;4992596;28;20121;-62
2023/03/12 03:07:41;;;;;;;2.35;1.83;;;2.70;98.80;;;;;;4991679;28;20063;-63
2023/03/12 03:10:07;;;;;;;3.15;1.75;;;2.70;99.30;;;;;;4995800;28;20375;-62
2023/03/12 03:12:35;;;;;;;3.13;1.90;;;2.60;99.60;;;;;;4993355;28;20108;-62
2023/03/12 03:15:02;;;;;;;2.47;1.77;;;2.60;99.20;;;;;;4988664;28;20048;-62
2023/03/12 03:17:28;;;;;;;3.60;2.05;;;2.60;99.50;;;;;;4996323;28;20121;-62
2023/03/12 03:19:54;;;;;;;1.73;1.60;;;2.60;99.60;;;;;;4995650;28;20397;-63
2023/03/12 03:22:21;;;;;;;2.13;1.50;;;2.60;99.80;;;;;;4990388;28;20056;-62
2023/03/12 03:24:47;;;;;;;3.10;1.75;;;2.60;99.80;;;;;;4995689;28;20029;-62
2023/03/12 03:27:13;;;;;;;3.00;1.58;;;2.60;99.50;;;;;;4992043;28;20037;-62
2023/03/12 03:29:39;;;;;;;2.28;1.30;;;2.60;99.50;;;;;;4993373;28;20041;-63
2023/03/12 03:32:05;;;;;;;2.70;1.60;;;2.50;99.40;;;;;;4995276;28;20037;-63
2023/03/12 03:34:31;;;;;;;2.47;1.50;;;2.50;99.50;;;;;;4995293;28;20033;-63
2023/03/12 03:36:57;;;;;;;2.80;1.73;;;2.50;99.90;;;;;;4997751;28;20068;-62
2023/03/12 03:39:24;;;;;;;2.20;1.73;;;2.70;99.80;;;;;;4994993;28;20843;-62
2023/03/12 03:41:51;;;;;;;1.88;1.30;;;2.70;99.30;;;;;;4996384;28;20056;-62
2023/03/12 03:44:17;;;;;;;2.28;1.95;;;2.50;99.30;;;;;;4996406;28;20657;-62
2023/03/12 03:46:42;;;;;;;1.83;1.40;;;2.50;99.50;;;;;;4997076;28;20046;-62
2023/03/12 03:49:08;;;;;;;2.40;1.33;;;2.60;99.00;;;;;;4996009;28;20048;-63
2023/03/12 03:51:34;;;;;;;4.25;1.70;;;2.60;98.90;;;;;;4996945;28;20052;-62
2023/03/12 03:53:59;;;;;;;2.13;1.42;;;2.70;98.50;;;;;;4998554;28;20030;-62
2023/03/12 03:56:25;;;;;;;2.70;1.38;;;2.70;98.90;;;;;;4992773;28;20050;-62
2023/03/12 03:58:51;;;;;;;1.88;1.15;;;2.60;98.50;;;;;;4997690;28;20034;-63
2023/03/12 04:01:17;;;;;;;3.22;1.70;;;2.60;98.40;;;;;;4994079;28;20053;-62
2023/03/12 04:03:43;;;;;;;3.20;1.60;;;2.50;98.90;;;;;;4997571;28;20058;-62
2023/03/12 04:06:09;;;;;;;2.20;1.70;;;2.30;99.60;;;;;;4987064;28;20056;-63
2023/03/12 04:08:36;;;;;;;3.50;2.83;;;2.30;99.90;;;;;;4998666;28;20068;-62
2023/03/12 04:11:10;;;;;;;2.72;2.22;;;2.30;99.90;;;;;;4991938;28;20030;-62
2023/03/12 04:13:37;;;;;;;2.90;2.15;;;2.20;99.90;;;;;;4993351;28;20098;-62
2023/03/12 04:16:03;;;;;;;3.25;2.25;;;2.20;99.90;;;;;;4994560;28;20107;-62
2023/03/12 04:18:29;;;;;;;3.92;2.00;;;2.10;99.90;;;;;;4996060;28;20156;-62
2023/03/12 04:20:54;;;;;;;2.03;1.77;;;2.10;99.90;;;;;;4993243;28;20045;-62
2023/03/12 04:23:20;;;;;;;2.33;1.63;;;2.10;99.90;;;;;;4988262;28;20042;-62
2023/03/12 04:25:45;;;;;;;3.53;2.55;;;2.00;99.90;;;;;;4995146;28;20037;-62
2023/03/12 04:28:11;;;;;;;4.82;2.92;;;2.10;99.90;;;;;;4996538;28;20049;-62
2023/03/12 04:30:37;;;;;;;3.75;2.08;;;2.20;99.90;;;;;;4994757;28;20152;-62
2023/03/12 04:33:04;;;;;;;2.58;1.60;;;2.20;99.90;;;;;;4995952;28;20164;-62
2023/03/12 04:35:30;;;;;;;3.22;1.67;;;2.20;99.90;;;;;;4992551;28;20632;-62
2023/03/12 04:37:56;;;;;;;1.90;1.65;;;2.20;99.90;;;;;;4997794;28;20054;-62
2023/03/12 04:40:21;;;;;;;2.22;1.55;;;2.20;99.90;;;;;;4993669;28;20025;-62
2023/03/12 04:42:47;;;;;;;2.63;1.92;;;2.20;99.90;;;;;;4993172;28;20046;-62
2023/03/12 04:45:13;;;;;;;3.88;2.65;;;2.20;99.90;;;;;;4991591;28;20604;-63
2023/03/12 04:47:39;;;;;;;2.30;1.73;;;2.20;99.90;;;;;;4994905;28;20038;-62
2023/03/12 04:50:06;;;;;;;1.80;1.55;;;2.20;99.90;;;;;;4994116;28;20041;-62
2023/03/12 04:52:31;;;;;;;2.13;1.63;;;2.30;99.90;;;;;;4993874;28;20569;-62
2023/03/12 04:54:58;;;;;;;2.33;1.77;;;2.40;99.90;;;;;;4992974;28;20064;-62
2023/03/12 04:57:24;;;;;;;3.10;2.08;;;2.40;99.90;;;;;;4992477;28;20057;-63
2023/03/12 04:59:50;;;;;;;2.75;1.83;;;2.40;99.90;;;;;;4996409;28;20184;-63
2023/03/12 05:02:15;;;;;;;4.88;2.65;;;2.40;99.90;;;;;;4995805;28;20038;-62
2023/03/12 05:04:41;;;;;;;2.67;2.10;;;2.40;99.90;;;;;;4997308;28;20727;-65
2023/03/12 05:07:06;;;;;;;2.55;1.70;;;2.40;99.90;;;;;;4992995;28;20064;-63
2023/03/12 05:09:32;;;;;;;2.72;1.90;;;2.40;99.90;;;;;;4999288;28;20053;-63
2023/03/12 05:11:58;;;;;;;2.78;2.00;;;2.40;99.90;;;;;;4993767;28;20049;-62
2023/03/12 05:14:23;;;;;;;2.30;1.95;;;2.40;99.90;;;;;;4978937;28;20436;-62
2023/03/12 05:16:49;;;;;;;2.45;1.90;;;2.50;99.90;;;;;;4997168;28;22664;-63
2023/03/12 05:19:15;;;;;;;3.90;1.83;;;2.50;99.90;;;;;;4998009;28;20518;-63
2023/03/12 05:21:41;;;;;;;1.80;1.70;;;2.60;99.90;;;;;;4999534;28;20414;-63
2023/03/12 05:24:08;;;;;;;2.55;1.70;;;2.60;99.90;;;;;;4995613;28;20038;-63
2023/03/12 05:26:34;;;;;;;5.28;2.38;;;2.60;99.90;;;;;;4997433;28;20038;-63
2023/03/12 05:29:00;;;;;;;5.50;2.78;;;2.80;99.90;;;;;;4997356;28;20034;-64
2023/03/12 05:31:31;;;;;;;7.80;4.40;;;2.80;99.80;;;;;;5001176;28;20716;-63
2023/03/12 05:33:58;;;;;;;7.18;4.53;;;2.90;99.90;;;;;;4995607;28;20128;-63
2023/03/12 05:36:24;;;;;;;7.15;4.28;;;2.90;99.90;;;;;;5000671;28;20056;-63
2023/03/12 05:38:50;;;;;;;4.32;2.92;;;2.90;99.90;;;;;;4997216;28;20021;-63
2023/03/12 05:41:24;;;;;;;6.07;3.30;;;2.90;99.90;;;;;;5001278;28;20044;-63
2023/03/12 05:43:52;;;;;;;4.25;3.03;;;2.80;99.90;;;;;;4997732;28;20409;-63
2023/03/12 05:46:18;;;;;;;3.47;2.95;;;2.80;99.90;;;;;;4993118;28;20035;-63
2023/03/12 05:48:43;;;;;;;4.35;3.13;;;2.80;99.90;;;;;;4993548;28;21029;-63
2023/03/12 05:51:09;;;;;;;7.47;4.53;;;2.90;99.90;;;;;;4997873;28;20053;-73
2023/03/12 05:53:35;;;;;;;4.00;2.80;;;3.10;99.90;;;;;;4997549;28;20033;-73
2023/03/12 05:56:03;;;;;;;5.88;4.38;;;3.30;99.90;;;;;;4993947;28;20137;-73
2023/03/12 05:58:28;;;;;;;5.00;4.50;;;3.40;99.90;;;;;;4996588;28;20327;-73
2023/03/12 06:00:54;;;;;;;3.33;2.85;;;3.40;99.90;;;;;;4988209;28;20042;-74
2023/03/12 06:03:20;;;;;;;3.70;2.85;;;3.40;99.90;;;;;;4993651;28;20046;-73
2023/03/12 06:05:47;;;;;;;2.97;2.50;;;3.60;99.90;;;;;;4994453;28;20576;-73
2023/03/12 06:08:12;;;;;;;3.22;2.70;;;3.60;99.90;;;;;;4995381;28;20652;-64
2023/03/12 06:10:38;;;;;;;3.88;2.83;;;3.70;99.90;;;;;;4995552;28;20049;-64
2023/03/12 06:13:04;;;;;;;4.50;3.15;;;3.70;99.90;;;;;;4992711;28;20026;-64
2023/03/12 06:15:30;;;;;;;4.90;2.97;;;3.70;99.90;;;;;;4996842;28;20033;-64
2023/03/12 06:17:56;;;;;;;3.33;2.83;;;3.70;99.90;;;;;;4993630;28;20054;-64
2023/03/12 06:20:22;;;;;;;7.85;7.03;;;3.70;99.90;;;;;;4994283;28;20053;-63
2023/03/12 06:22:48;;;;;;;4.65;4.18;;;3.80;99.90;;;;;;4997472;28;20076;-63
2023/03/12 06:25:14;;;;;;;6.45;5.03;;;3.90;99.90;;;;;;4997453;28;20454;-63
2023/03/12 06:27:40;;;;;;;5.03;4.50;;;3.90;99.90;;;;;;4994583;28;20781;-63
2023/03/12 06:30:06;;;;;;;6.30;4.65;;;3.90;99.90;;;;;;4994834;28;20132;-74
2023/03/12 06:32:32;;;;;;;5.80;4.90;;;3.80;99.90;;;;;;4999328;28;20038;-74
2023/03/12 06:35:03;;;;;;;5.07;3.50;;;3.80;99.90;;;;;;4990336;28;20080;-74
2023/03/12 06:37:29;;;;;;;4.65;3.95;;;3.70;99.90;;;;;;4992368;28;20053;-74
2023/03/12 06:39:54;;;;;;;5.05;3.55;;;3.70;99.90;;;;;;4994632;28;20030;-74
2023/03/12 06:42:21;;;;;;;7.80;7.05;;;3.70;99.90;;;;;;4974036;28;20049;-73
2023/03/12 06:44:47;;;;;;;4.28;3.83;;;3.70;99.90;;;;;;4995139;28;20210;-63
2023/03/12 06:47:13;;;;;;;4.90;3.55;;;3.70;99.90;;;;;;4996809;28;20054;-63
2023/03/12 06:49:39;;;;;;;4.50;3.33;;;3.60;99.90;;;;;;4984553;28;20066;-63
2023/03/12 06:52:05;;;;;;;4.63;3.50;;;3.50;99.90;;;;;;4990822;28;20058;-64
2023/03/12 06:54:31;;;;;;;4.53;3.30;;;3.50;99.90;;;;;;4996210;28;20030;-64
2023/03/12 06:56:58;;;;;;;5.53;3.25;;;3.50;99.90;;;;;;4996601;28;20158;-63
2023/03/12 06:59:25;;;;;;;5.05;3.15;;;3.60;99.90;;;;;;4995607;28;20033;-63
2023/03/12 07:01:50;;;;;;;3.47;2.80;;;3.70;99.90;;;;;;4991780;28;20068;-63
2023/03/12 07:04:16;;;;;;;4.30;2.70;;;3.80;99.90;;;;;;4995996;28;20626;-64
2023/03/12 07:06:42;;;;;;;2.92;2.58;;;3.80;99.90;;;;;;4991472;28;20034;-64
2023/03/12 07:09:08;;;;;;;3.10;2.47;;;3.90;99.90;;;;;;4994859;28;20048;-64
2023/03/12 07:11:34;;;;;;;3.35;2.60;;;4.00;99.50;;;;;;4991831;28;20037;-62
2023/03/12 07:14:00;;;;;;;3.05;2.22;;;4.20;98.40;;;;;;4997094;28;20586;-62
2023/03/12 07:16:26;;;;;;;3.22;2.20;;;4.50;97.70;;;;;;4988611;28;20052;-62
2023/03/12 07:18:52;;;;;;;2.80;2.22;;;4.60;97.10;;;;;;4994665;28;20038;-63
2023/03/12 07:21:22;;;;;;;4.90;2.30;;;4.70;96.60;;;;;;4997726;28;20038;-63
2023/03/12 07:23:49;;;;;;;3.40;2.38;;;4.90;97.10;;;;;;5004935;28;20096;-63
2023/03/12 07:26:15;;;;;;;2.80;2.55;;;5.20;95.90;;;;;;4978576;28;20478;-71
2023/03/12 07:28:41;;;;;;;3.30;2.78;;;5.40;95.30;;;;;;4985672;28;20057;-71
2023/03/12 07:31:06;;;;;;;5.75;3.08;;;5.60;95.40;;;;;;5001001;28;20045;-72
2023/03/12 07:33:33;;;;;;;3.95;3.38;;;5.80;95.30;;;;;;4985275;28;20121;-72
2023/03/12 07:35:59;;;;;;;3.30;2.83;;;6.00;95.30;;;;;;4996118;28;20636;-72
2023/03/12 07:38:25;;;;;;;4.88;2.85;;;6.30;94.70;;;;;;4999273;28;20034;-72
2023/03/12 07:40:56;;;;;;;5.38;3.60;;;6.40;94.10;;;;;;4993472;28;20048;-74
2023/03/12 07:43:23;;;;;;;4.13;3.00;;;6.30;93.90;;;;;;4994238;28;20038;-73
2023/03/12 07:45:49;;;;;;;4.30;3.08;;;6.40;93.50;;;;;;4992297;28;20691;-72
2023/03/12 07:48:14;;;;;;;3.60;2.78;;;6.50;94.00;;;;;;5000933;28;20116;-72
2023/03/12 07:50:40;;;;;;;3.63;2.80;;;6.60;93.10;;;;;;4997921;28;20029;-72
2023/03/12 07:53:06;;;;;;;5.53;3.72;;;6.60;93.00;;;;;;5002232;28;20157;-72
2023/03/12 07:55:33;;;;;;;4.55;3.22;;;6.70;93.10;;;;;;4992695;28;20027;-72
2023/03/12 07:57:59;;;;;;;6.10;3.00;;;6.80;92.80;;;;;;4994381;28;20041;-74
2023/03/12 08:00:25;;;;;;;3.85;2.80;;;6.80;91.80;;;;;;4991231;28;20310;-74
2023/03/12 08:02:51;;;;;;;3.80;2.85;;;6.70;91.40;;;;;;4981920;28;20054;-75
2023/03/12 08:05:17;;;;;;;3.67;2.75;;;6.70;90.50;;;;;;4990379;28;20560;-76
2023/03/12 08:07:43;;;;;;;4.82;2.80;;;6.90;90.60;;;;;;4994585;28;20073;-74
2023/03/12 08:10:10;;;;;;;3.20;2.72;;;7.00;90.70;;;;;;5000984;28;20145;-73
2023/03/12 08:12:36;;;;;;;5.93;3.50;;;7.10;90.50;;;;;;4996601;28;20037;-73
2023/03/12 08:15:04;;;;;;;6.25;3.60;;;7.20;89.40;;;;;;4992389;28;20042;-70
2023/03/12 08:17:29;;;;;;;3.30;2.58;;;7.10;89.00;;;;;;4986120;28;20037;-71
2023/03/12 08:19:55;;;;;;;3.70;2.75;;;7.10;87.10;;;;;;4994990;28;20042;-71
2023/03/12 08:22:21;;;;;;;4.75;2.10;;;7.20;84.80;;;;;;5002840;28;20565;-71
2023/03/12 08:24:46;;;;;;;3.70;2.60;;;7.10;83.10;;;;;;5001376;28;20044;-71
2023/03/12 08:27:12;;;;;;;3.72;2.60;;;7.20;83.80;;;;;;4991385;28;20124;-71
2023/03/12 08:29:39;;;;;;;5.00;3.00;;;7.40;85.10;;;;;;4999664;28;20022;-71
2023/03/12 08:32:04;;;;;;;3.80;2.22;;;7.60;83.90;;;;;;5001214;28;20025;-71
2023/03/12 08:34:30;;;;;;;2.17;2.00;;;7.70;84.80;;;;;;5002227;28;20053;-71
2023/03/12 08:36:56;;;;;;;2.10;1.65;;;7.90;84.40;;;;;;4998331;28;20045;-71
2023/03/12 08:39:21;;;;;;;1.27;0.93;;;8.20;76.60;;;;;;4994977;28;20386;-71
2023/03/12 08:41:48;;;;;;;3.25;1.10;;;8.20;72.40;;;;;;4997516;28;20104;-70
2023/03/12 08:44:13;;;;;;;1.52;1.30;;;8.40;68.90;;;;;;4998527;28;20053;-70
2023/03/12 08:46:39;;;;;;;1.40;1.30;;;8.40;67.90;;;;;;4998685;28;20026;-71
2023/03/12 08:49:04;;;;;;;1.48;1.25;;;8.50;66.10;;;;;;5001007;28;20046;-71
2023/03/12 08:51:30;;;;;;;1.35;1.25;;;8.60;64.40;;;;;;4993962;28;20022;-71
2023/03/12 08:53:56;;;;;;;2.38;1.35;;;8.60;62.60;;;;;;4998325;28;20037;-71
2023/03/12 08:56:21;;;;;;;1.30;1.13;;;8.60;63.50;;;;;;4988942;28;20445;-71
2023/03/12 08:58:47;;;;;;;1.63;1.02;;;8.60;61.50;;;;;;4999886;28;21158;-71
2023/03/12 09:01:13;;;;;;;3.35;1.30;;;8.60;61.10;;;;;;4997370;28;20050;-71
2023/03/12 09:03:40;;;;;;;1.33;1.23;;;8.50;61.00;;;;;;4989761;28;20034;-72
2023/03/12 09:06:15;;;;;;;2.22;2.00;;;8.70;62.50;;;;;;4991143;28;20052;-71
2023/03/12 09:08:42;;;;;;;2.15;1.25;;;8.70;60.40;;;;;;4998291;28;20482;-71
2023/03/12 09:11:09;;;;;;;2.03;1.40;;;8.90;60.20;;;;;;4995564;28;20053;-70
2023/03/12 09:13:35;;;;;;;1.20;1.10;;;8.90;59.20;;;;;;4995623;28;20802;-70
2023/03/12 09:16:02;;;;;;;1.85;1.02;;;9.00;59.10;;;;;;4993592;28;20050;-70
2023/03/12 09:18:28;;;;;;;1.98;1.30;;;8.90;56.90;;;;;;4992329;28;20034;-69
2023/03/12 09:20:55;;;;;;;1.48;1.15;;;8.70;57.20;;;;;;4995554;28;20050;-69
2023/03/12 09:23:21;;;;;;;1.23;0.90;;;8.70;57.10;;;;;;4994627;28;20122;-70
2023/03/12 09:25:47;;;;;;;1.73;1.23;;;8.70;58.10;;;;;;4997358;28;20522;-72
2023/03/12 09:28:13;;;;;;;2.38;1.00;;;9.00;58.30;;;;;;4999946;28;20061;-70
2023/03/12 09:30:39;;;;;;;1.95;1.35;;;9.20;57.50;;;;;;4995428;28;20084;-71
2023/03/12 09:33:05;;;;;;;1.25;0.95;;;9.20;58.30;;;;;;4995582;28;20029;-70
2023/03/12 09:35:31;;;;;;;8.95;7.57;;;9.10;56.30;;;;;;4997349;28;20049;-70
2023/03/12 09:37:58;;;;;;;2.00;1.60;;;9.10;55.20;;;;;;4978904;28;20034;-70
2023/03/12 09:40:28;;;;;;;2.42;1.40;;;9.10;53.70;;;;;;4996006;28;20042;-72
2023/03/12 09:43:09;;;;;;;1.55;1.13;;;9.10;55.20;;;;;;4987025;28;20608;-72
2023/03/12 09:45:42;;;;;;;1.77;1.10;;;9.10;54.30;;;;;;4988663;28;20046;-70
2023/03/12 09:48:19;;;;;;;1.83;1.20;;;8.90;54.10;;;;;;4994602;28;20057;-70
2023/03/12 09:50:50;;;;;;;1.13;0.90;;;8.80;54.30;;;;;;4998001;28;20204;-68
2023/03/12 09:53:15;;;;;;;1.73;1.20;;;8.90;54.90;;;;;;4999455;28;20487;-71
2023/03/12 09:55:46;;;;;;;1.55;0.75;;;9.10;55.90;;;;;;4979562;28;21620;-72
2023/03/12 09:58:21;;;;;;;7.10;6.40;;;9.20;53.90;;;;;;4995674;28;20580;-73
2023/03/12 10:00:47;;;;;;;1.10;0.90;;;9.50;55.00;;;;;;4981608;28;20080;-72
2023/03/12 10:03:25;;;;;;;1.75;1.30;;;9.60;53.80;;;;;;4996116;28;20419;-70
2023/03/12 10:06:09;;;;;;;3.28;2.97;;;9.60;52.90;;;;;;4999803;28;20030;-69
2023/03/12 10:09:14;;;;;;;1.80;0.80;;;9.50;51.50;;;;;;4984610;28;20041;-69
2023/03/12 10:11:54;;;;;;;0.85;0.70;;;9.40;51.20;;;;;;4953966;28;26305;-70
2023/03/12 10:14:40;;;;;;;2.10;0.90;;;9.30;49.80;;;;;;4993753;28;20049;-67
2023/03/12 10:17:25;;;;;;;1.05;0.75;;;9.50;50.80;;;;;;4991874;28;20042;-63
2023/03/12 10:20:09;;;;;;;1.05;0.70;;;9.80;50.90;;;;;;4984817;28;20048;-70
2023/03/12 10:23:03;;;;;;;1.27;0.60;;;10.00;48.10;;;;;;4983699;28;20046;-70
2023/03/12 10:25:55;;;;;;;1.40;1.23;;;9.90;47.50;;;;;;4975707;28;20144;-69
2023/03/12 10:28:24;;;;;;;;;;;9.90;48.80;;;;;;4976629;28;20054;-70
2023/03/12 10:31:01;;;;;;;0.98;0.63;;;9.90;49.60;;;;;;4987165;28;19926;-70
2023/03/12 10:33:47;;;;;;;0.65;0.60;;;9.90;50.40;;;;;;4969036;28;20064;-63
2023/03/12 10:36:32;;;;;;;1.17;0.60;;;10.10;51.70;;;;;;4995910;28;20593;-63
2023/03/12 10:38:58;;;;;;;1.42;0.70;;;10.30;47.90;;;;;;4995256;28;20226;-63
2023/03/12 10:41:28;;;;;;;0.60;0.60;;;10.60;49.10;;;;;;4992680;28;20521;-63
2023/03/12 10:43:58;;;;;;;2.72;0.32;;;10.90;49.10;;;;;;4983418;28;20105;-63
2023/03/12 10:46:35;;;;;;;0.68;0.57;;;10.90;47.20;;;;;;4985908;28;20030;-63
2023/03/12 10:49:20;;;;;;;1.25;0.60;;;11.00;45.40;;;;;;4992964;28;20042;-71
2023/03/12 10:52:02;;;;;;;0.80;0.60;;;10.80;46.90;;;;;;4980915;28;20038;-62
2023/03/12 10:54:30;;;;;;;2.22;2.03;;;10.80;45.40;;;;;;4994227;28;20173;-63
2023/03/12 10:56:56;;;;;;;1.02;0.40;;;10.90;41.30;;;;;;4992997;28;20107;-70
2023/03/12 10:59:27;;;;;;;0.40;0.30;;;10.80;41.20;;;;;;4994618;28;20034;-71
2023/03/12 11:01:53;;;;;;;0.97;0.30;;;10.80;39.70;;;;;;4993467;28;20124;-71
2023/03/12 11:04:24;;;;;;;4.68;4.20;;;10.80;38.10;;;;;;4993198;28;20034;-70
2023/03/12 11:07:13;;;;;;;1.73;1.23;;;10.90;37.80;;;;;;4998571;28;20038;-70
2023/03/12 11:09:38;;;;;;;5.40;1.42;;;10.90;39.20;;;;;;4984829;28;20443;-70
2023/03/12 11:12:23;;;;;;;0.80;0.60;;;11.00;39.60;;;;;;4987194;28;20034;-63
2023/03/12 11:14:49;;;;;;;0.22;0.17;;;11.00;38.80;;;;;;4989710;28;20037;-63
2023/03/12 11:17:26;;;;;;;0.20;0.20;;;10.80;37.60;;;;;;4993417;28;20049;-63
2023/03/12 11:19:52;;;;;;;0.50;0.30;;;10.50;37.40;;;;;;4991928;28;20487;-63
2023/03/12 11:22:31;;;;;;;0.25;0.25;;;10.40;38.40;;;;;;4999418;28;20096;-64
2023/03/12 11:24:59;;;;;;;0.68;0.38;;;10.40;40.30;;;;;;4989025;28;20030;-63
2023/03/12 11:27:44;;;;;;;0.20;0.20;;;10.40;39.80;;;;;;4994806;28;20441;-64
2023/03/12 11:30:14;;;;;;;0.15;0.15;;;10.40;36.00;;;;;;4990087;28;20065;-63
2023/03/12 11:32:50;;;;;;;0.10;0.10;;;10.50;37.40;;;;;;4996644;28;20124;-63
2023/03/12 11:35:28;;;;;;;0.85;0.50;;;10.40;37.40;;;;;;4986987;28;20048;-63
2023/03/12 11:38:25;;;;;;;1.90;0.60;;;10.40;42.50;;;;;;4995994;28;20042;-63
2023/03/12 11:41:18;;;;;;;1.20;1.10;;;10.60;43.40;;;;;;4982260;28;20541;-62
2023/03/12 11:43:47;;;;;;;1.02;0.70;;;11.10;42.90;;;;;;4998615;28;20062;-66
2023/03/12 11:46:47;;;;;;;1.02;0.75;;;11.10;41.60;;;;;;4992799;28;20160;-66
2023/03/12 11:49:16;;;;;;;1.50;0.60;;;11.10;40.50;;;;;;4999833;28;20268;-66
2023/03/12 11:51:54;;;;;;;2.20;0.98;;;10.90;41.10;;;;;;4997330;28;20112;-66
2023/03/12 11:54:19;;;;;;;0.85;0.60;;;10.80;40.90;;;;;;4995665;28;20038;-65
2023/03/12 11:56:52;;;;;;;1.10;0.95;;;10.80;43.70;;;;;;4994229;28;20041;-65
2023/03/12 11:59:39;;;;;;;0.80;0.60;;;10.30;45.60;;;;;;4997029;28;20074;-65
2023/03/12 12:02:34;;;;;;;0.93;0.80;;;10.00;46.30;;;;;;4989514;28;20046;-66
2023/03/12 12:05:00;;;;;;;0.90;0.90;;;10.00;47.30;;;;;;4996876;28;20056;-65
2023/03/12 12:07:43;;;;;;;0.77;0.65;;;9.90;47.50;;;;;;4999470;28;20042;-65
2023/03/12 12:10:46;;;;;;;1.85;1.10;;;10.00;47.10;;;;;;5001117;28;20072;-66
2023/03/12 12:13:25;;;;;;;1.10;1.00;;;9.70;48.40;;;;;;4995933;28;20483;-65
2023/03/12 12:16:03;;;;;;;2.35;1.20;;;9.80;50.50;;;;;;4997160;28;20037;-66
2023/03/12 12:19:08;;;;;;;1.98;1.33;;;9.80;48.60;;;;;;4992578;28;20038;-66
2023/03/12 12:21:48;;;;;;;1.27;1.00;;;9.70;49.80;;;;;;5001986;28;20045;-66
2023/03/12 12:24:25;;;;;;;1.20;1.10;;;9.60;47.80;;;;;;5001528;28;20069;-66
2023/03/12 12:27:24;;;;;;;1.02;0.85;;;9.60;49.30;;;;;;4999466;28;20049;-66
2023/03/12 12:29:58;;;;;;;1.27;1.10;;;9.50;48.20;;;;;;5001967;28;20053;-65
2023/03/12 12:32:34;;;;;;;0.82;0.82;;;9.60;48.40;;;;;;4999042;28;20390;-65
2023/03/12 12:35:20;;;;;;;1.45;1.13;;;9.70;47.00;;;;;;4994471;28;20038;-65
2023/03/12 12:37:54;;;;;;;1.67;1.10;;;9.80;48.90;;;;;;5000520;28;20406;-65
2023/03/12 12:40:39;;;;;;;1.80;1.02;;;9.90;48.20;;;;;;4998273;28;20042;-65
2023/03/12 12:43:17;;;;;;;1.50;1.27;;;10.10;49.10;;;;;;4995169;28;20068;-66
2023/03/12 12:45:47;;;;;;;1.42;1.33;;;10.20;49.90;;;;;;4999750;28;20040;-65
2023/03/12 12:48:36;;;;;;;1.60;1.42;;;10.10;50.10;;;;;;4997322;28;20037;-66
2023/03/12 12:51:03;;;;;;;1.77;1.60;;;10.10;50.60;;;;;;4997257;28;20054;-66
2023/03/12 12:53:32;;;;;;;1.52;1.40;;;10.10;50.60;;;;;;4998730;28;20034;-66
2023/03/12 12:56:01;;;;;;;2.13;1.40;;;10.10;49.50;;;;;;4989663;28;20065;-66
2023/03/12 12:58:45;;;;;;;1.80;1.33;;;9.90;50.00;;;;;;4994397;28;20104;-66
2023/03/12 13:01:14;;;;;;;2.42;1.58;;;9.90;49.40;;;;;;4983173;28;20175;-66
2023/03/12 13:03:40;;;;;;;1.85;1.65;;;10.00;49.30;;;;;;4990410;28;20042;-65
2023/03/12 13:06:07;;;;;;;1.77;1.67;;;9.90;47.70;;;;;;4986080;28;20037;-67